createdAt,value
2023-10-24T00:02:42.575Z,2.07
2023-10-24T00:07:47.121Z,1.40
2023-10-24T00:12:50.407Z,1.73
2023-10-24T00:17:55.162Z,1.80
2023-10-24T00:22:58.644Z,1.60
2023-10-24T00:28:01.910Z,1.20
2023-10-24T00:33:06.657Z,1.37
2023-10-24T00:38:09.967Z,1.60
2023-10-24T00:43:13.621Z,1.80
2023-10-24T00:48:19.514Z,1.63
2023-10-24T00:53:22.860Z,1.60
2023-10-24T00:58:26.375Z,1.30
2023-10-24T01:03:31.193Z,1.30
2023-10-24T01:08:34.576Z,1.50
2023-10-24T01:13:38.123Z,1.63
2023-10-24T01:18:43.052Z,1.43
2023-10-24T01:23:47.722Z,1.30
2023-10-24T01:28:51.116Z,1.17
2023-10-24T01:33:54.384Z,1.33
2023-10-24T01:38:59.177Z,1.47
2023-10-24T01:44:02.351Z,2.10
2023-10-24T01:49:05.844Z,2.00
2023-10-24T01:54:10.550Z,1.73
2023-10-24T01:59:13.758Z,1.90
2023-10-24T02:04:17.056Z,1.80
2023-10-24T02:09:21.765Z,2.30
2023-10-24T02:14:24.949Z,1.80
2023-10-24T02:19:28.324Z,1.80
2023-10-24T02:24:33.789Z,1.47
2023-10-24T02:29:37.079Z,1.40
2023-10-24T02:34:40.489Z,1.20
2023-10-24T02:39:45.443Z,1.90
2023-10-24T02:44:50.399Z,1.30
2023-10-24T02:49:55.696Z,1.53
2023-10-24T02:55:02.061Z,1.43
2023-10-24T03:00:07.030Z,1.67
2023-10-24T03:05:10.754Z,1.30
2023-10-24T03:10:15.602Z,1.10
2023-10-24T03:15:19.046Z,1.37
2023-10-24T03:20:22.455Z,1.10
2023-10-24T03:25:29.470Z,1.30
2023-10-24T03:30:32.706Z,1.10
2023-10-24T03:35:35.897Z,1.50
2023-10-24T03:40:41.973Z,1.27
2023-10-24T03:45:45.812Z,1.20
2023-10-24T03:50:49.206Z,1.20
2023-10-24T03:55:58.375Z,1.70
2023-10-24T04:01:06.321Z,2.40
2023-10-24T04:06:13.187Z,1.80
2023-10-24T04:11:18.315Z,1.67
2023-10-24T04:16:22.057Z,1.50
2023-10-24T04:21:25.418Z,1.37
2023-10-24T04:26:29.967Z,1.57
2023-10-24T04:31:33.276Z,1.80
2023-10-24T04:36:36.672Z,1.60
2023-10-24T04:41:41.411Z,1.37
2023-10-24T04:46:45.305Z,1.60
2023-10-24T04:51:48.510Z,1.30
2023-10-24T04:56:53.023Z,1.90
2023-10-24T05:01:56.384Z,1.40
2023-10-24T05:06:59.959Z,1.70
2023-10-24T05:12:06.233Z,1.97
2023-10-24T05:17:09.544Z,1.40
2023-10-24T05:22:13.140Z,1.60
2023-10-24T05:27:17.769Z,1.50
2023-10-24T05:32:21.104Z,1.60
2023-10-24T05:37:24.470Z,2.17
2023-10-24T05:42:29.226Z,1.77
2023-10-24T05:47:32.477Z,1.60
2023-10-24T05:52:35.818Z,2.20
2023-10-24T05:57:40.545Z,2.10
2023-10-24T06:02:43.787Z,1.77
2023-10-24T06:07:47.115Z,2.17
2023-10-24T06:12:51.790Z,2.40
2023-10-24T06:17:56.635Z,2.20
2023-10-24T06:23:00.034Z,3.20
2023-10-24T06:28:04.922Z,3.63
2023-10-24T06:33:08.102Z,3.93
2023-10-24T06:38:11.716Z,3.57
2023-10-24T06:43:16.996Z,6.30
2023-10-24T06:48:21.090Z,4.93
2023-10-24T06:53:24.370Z,5.40
2023-10-24T06:58:29.307Z,5.70
2023-10-24T07:03:32.772Z,4.33
2023-10-24T07:08:36.072Z,5.00
2023-10-24T07:13:40.874Z,4.90
2023-10-24T07:18:44.428Z,4.73
2023-10-24T07:23:47.549Z,4.30
2023-10-24T07:28:52.421Z,5.10
2023-10-24T07:33:55.712Z,7.53
2023-10-24T07:39:01.569Z,29.43
2023-10-24T07:44:06.971Z,6.40
2023-10-24T07:49:11.157Z,7.37
2023-10-24T07:54:14.597Z,5.60
2023-10-24T07:59:19.686Z,4.93
2023-10-24T08:04:23.459Z,4.63
2023-10-24T08:09:26.809Z,3.53
2023-10-24T08:14:31.486Z,3.10
2023-10-24T08:19:34.884Z,3.00
2023-10-24T08:24:38.372Z,3.20
2023-10-24T08:29:43.361Z,3.23
2023-10-24T08:34:47.166Z,3.07
2023-10-24T08:39:51.165Z,1.90
2023-10-24T08:44:55.850Z,1.80
2023-10-24T08:50:02.012Z,1.03
2023-10-24T08:55:06.571Z,1.17
2023-10-24T09:00:13.367Z,1.33
2023-10-24T09:05:17.003Z,1.23
2023-10-24T09:10:21.509Z,1.27
2023-10-24T09:15:26.284Z,1.60
2023-10-24T09:20:32.190Z,1.40
2023-10-24T09:25:36.253Z,1.23
2023-10-24T09:30:41.646Z,1.90
2023-10-24T09:35:54.802Z,1.80
2023-10-24T09:41:05.367Z,2.27
2023-10-24T09:46:10.185Z,1.93
2023-10-24T09:51:13.966Z,1.63
2023-10-24T09:56:18.921Z,1.63
2023-10-24T10:01:23.817Z,1.70
2023-10-24T10:06:47.464Z,1.80
2023-10-24T10:11:52.770Z,1.67
2023-10-24T10:17:11.156Z,1.73
2023-10-24T10:22:31.500Z,1.47
2023-10-24T10:27:40.160Z,1.67
2023-10-24T10:32:58.615Z,1.20
2023-10-24T10:38:04.786Z,1.23
2023-10-24T10:43:08.092Z,1.07
2023-10-24T10:48:12.931Z,1.20
2023-10-24T10:53:29.306Z,0.90
2023-10-24T10:58:40.479Z,0.90
2023-10-24T11:03:48.775Z,0.90
2023-10-24T11:09:08.949Z,0.90
2023-10-24T11:14:17.089Z,0.70
2023-10-24T11:19:23.348Z,0.90
2023-10-24T11:24:26.536Z,0.80
2023-10-24T11:29:29.885Z,0.77
2023-10-24T11:34:34.555Z,0.97
2023-10-24T11:39:37.996Z,0.67
2023-10-24T11:44:41.885Z,1.10
2023-10-24T11:49:48.073Z,1.50
2023-10-24T11:54:53.933Z,2.07
2023-10-24T11:59:58.309Z,3.70
2023-10-24T12:05:04.272Z,1.70
2023-10-24T12:10:11.502Z,2.73
2023-10-24T12:15:17.019Z,3.00
2023-10-24T12:20:22.188Z,2.50
2023-10-24T12:25:25.440Z,2.67
2023-10-24T12:30:29.518Z,2.40
2023-10-24T12:35:34.215Z,2.50
2023-10-24T12:40:39.231Z,2.77
2023-10-24T12:45:42.581Z,3.07
2023-10-24T12:50:47.359Z,2.50
2023-10-24T12:55:51.184Z,3.20
2023-10-24T13:00:54.844Z,3.20
2023-10-24T13:05:59.773Z,2.20
2023-10-24T13:11:05.123Z,2.83
2023-10-24T13:16:08.710Z,2.07
2023-10-24T13:21:13.734Z,2.00
2023-10-24T13:26:17.770Z,1.80
2023-10-24T13:31:21.328Z,1.20
2023-10-24T13:36:28.510Z,1.43
2023-10-24T13:41:32.791Z,1.50
2023-10-24T13:46:36.388Z,1.80
2023-10-24T13:51:41.242Z,2.63
2023-10-24T13:56:44.637Z,2.23
2023-10-24T14:01:48.422Z,5.30
2023-10-24T14:06:53.505Z,8.60
2023-10-24T14:11:57.156Z,2.47
2023-10-24T14:17:00.876Z,4.30
2023-10-24T14:22:06.084Z,2.47
2023-10-24T14:27:09.844Z,1.77
2023-10-24T14:32:13.609Z,1.87
2023-10-24T14:37:18.738Z,2.13
2023-10-24T14:42:22.532Z,2.20
2023-10-24T14:47:29.923Z,1.77
2023-10-24T14:52:36.923Z,2.20
2023-10-24T14:57:41.005Z,3.00
2023-10-24T15:02:46.369Z,2.40
2023-10-24T15:07:54.086Z,2.77
2023-10-24T15:12:58.793Z,4.00
2023-10-24T15:18:06.642Z,8.63
2023-10-24T15:23:11.595Z,8.87
2023-10-24T15:28:15.237Z,23.47
2023-10-24T15:33:21.611Z,45.00
2023-10-24T15:38:28.316Z,20.20
2023-10-24T15:43:32.046Z,21.07
2023-10-24T15:48:36.567Z,12.13
2023-10-24T15:53:42.507Z,8.90
2023-10-24T15:58:46.613Z,4.73
2023-10-24T16:03:49.957Z,6.10
2023-10-24T16:08:54.765Z,7.13
2023-10-24T16:13:58.417Z,4.10
2023-10-24T16:19:02.172Z,3.30
2023-10-24T16:24:08.117Z,3.30
2023-10-24T16:29:11.809Z,5.00
2023-10-24T16:34:15.292Z,6.43
2023-10-24T16:39:20.341Z,3.93
2023-10-24T16:44:24.104Z,7.90
2023-10-24T16:49:29.742Z,6.77
2023-10-24T16:54:34.752Z,14.33
2023-10-24T16:59:38.527Z,10.67
2023-10-24T17:04:42.398Z,11.90
2023-10-24T17:09:47.515Z,12.33
2023-10-24T17:14:50.946Z,9.57
2023-10-24T17:19:54.698Z,13.90
2023-10-24T17:25:04.745Z,13.93
2023-10-24T17:30:09.876Z,22.13
2023-10-24T17:35:13.678Z,7.17
2023-10-24T17:40:18.721Z,11.40
2023-10-24T17:45:22.217Z,5.67
2023-10-24T17:50:25.871Z,4.50
2023-10-24T17:55:31.333Z,5.70
2023-10-24T18:00:35.508Z,6.43
2023-10-24T18:05:39.628Z,4.07
2023-10-24T18:10:44.665Z,3.67
2023-10-24T18:15:48.068Z,5.70
2023-10-24T18:20:51.370Z,5.90
2023-10-24T18:25:57.038Z,6.90
2023-10-24T18:31:00.656Z,7.43
2023-10-24T18:36:05.878Z,6.90
2023-10-24T18:41:12.051Z,7.97
2023-10-24T18:46:16.139Z,7.40
2023-10-24T18:51:20.709Z,6.10
2023-10-24T18:56:26.924Z,7.70
2023-10-24T19:01:30.848Z,7.27
2023-10-24T19:06:36.477Z,7.37
2023-10-24T19:11:42.522Z,4.73
2023-10-24T19:16:46.687Z,3.87
2023-10-24T19:21:51.277Z,3.47
2023-10-24T19:26:57.589Z,2.40
2023-10-24T19:32:01.636Z,3.10
2023-10-24T19:37:08.542Z,1.70
2023-10-24T19:42:16.422Z,2.00
2023-10-24T19:47:21.824Z,1.97
2023-10-24T19:52:25.677Z,3.50
2023-10-24T19:57:30.832Z,3.20
2023-10-24T20:02:35.040Z,3.70
2023-10-24T20:07:40.269Z,2.77
2023-10-24T20:12:47.012Z,2.83
2023-10-24T20:17:50.974Z,3.60
2023-10-24T20:22:55.225Z,2.27
2023-10-24T20:27:59.978Z,2.20
2023-10-24T20:33:03.281Z,2.40
2023-10-24T20:38:06.480Z,2.27
2023-10-24T20:43:11.345Z,2.40
2023-10-24T20:48:15.482Z,2.40
2023-10-24T20:53:22.992Z,2.40
2023-10-24T20:58:28.510Z,1.97
2023-10-24T21:03:31.875Z,2.53
2023-10-24T21:08:35.401Z,2.10
2023-10-24T21:13:40.496Z,1.47
2023-10-24T21:18:45.179Z,1.63
2023-10-24T21:23:48.706Z,1.00
2023-10-24T21:28:53.376Z,2.00
2023-10-24T21:33:56.965Z,1.23
2023-10-24T21:39:00.302Z,1.00
2023-10-24T21:44:05.269Z,1.30
2023-10-24T21:49:08.909Z,1.50
2023-10-24T21:54:12.465Z,1.10
2023-10-24T21:59:17.065Z,1.03
2023-10-24T22:04:20.393Z,0.93
2023-10-24T22:09:23.874Z,0.70
2023-10-24T22:14:28.693Z,0.60
2023-10-24T22:19:31.865Z,0.70
2023-10-24T22:24:35.206Z,0.70
2023-10-24T22:29:40.284Z,0.70
2023-10-24T22:34:43.717Z,1.10
2023-10-24T22:39:47.193Z,0.90
2023-10-24T22:44:52.028Z,0.70
2023-10-24T22:49:55.397Z,0.90
2023-10-24T22:54:58.769Z,1.83
2023-10-24T23:00:05.636Z,1.20
2023-10-24T23:05:10.017Z,0.90
2023-10-24T23:10:13.456Z,0.60
2023-10-24T23:15:18.411Z,0.73
2023-10-24T23:20:21.776Z,0.80
2023-10-24T23:25:24.996Z,0.70
2023-10-24T23:30:30.853Z,0.67
2023-10-24T23:35:34.162Z,0.40
2023-10-24T23:40:37.427Z,0.60
2023-10-24T23:45:42.285Z,0.67
2023-10-24T23:50:45.527Z,0.77
2023-10-24T23:55:48.908Z,0.60
